Latest Weather Observations for Cooma Airport

IDN60801

Issued at 5:35 pm EST Friday 19 September 2014 (issued every 30 minutes, with the page automatically refreshed every 10 minutes)

About weather observations | Map of weather stations | Latest weather observations for NSW | Other Formats
Station Details ID: 070217 Name: COOMA AIRPORT AWS Lat: -36.29 Lon: 148.97 Height: 930.0 m
Data from the previous 72 hours. | See also: Recent months for locations in New South Wales
Date/Time
EST
Temp
°C
App
Temp
°C
Dew
Point
Rel
Hum
%
Delta-T
°C
Wind Press
QNH
hPa
Press
MSL
hPa
Rain
since 9 am
mm
Dir
 
Spd
km/h
Gust
km/h
Spd
kts
Gust
kts
19/05:30pm 8.9 3.3 0.9 57 3.4 S 20 26 11 14 1020.0 1020.1 0.0
19/05:00pm 9.9 3.9 1.3 55 3.8 S 22 28 12 15 1019.7 1019.7 0.0
19/04:30pm 10.3 3.8 0.6 51 4.2 S 24 32 13 17 1019.4 1019.4 0.0
19/04:00pm 10.9 2.8 -0.2 46 4.7 S 32 39 17 21 1019.1 1019.1 0.0
19/03:30pm 11.1 3.8 -0.1 46 4.8 S 28 39 15 21 1019.0 1019.0 0.0
19/03:00pm 11.1 3.7 -1.0 43 5.1 S 28 39 15 21 1019.2 1019.2 0.0
19/02:30pm 11.2 4.5 1.2 50 4.4 SSW 26 37 14 20 1019.1 1019.1 0.0
19/02:00pm 11.1 4.4 1.4 51 4.3 SSW 26 33 14 18 1019.4 1019.4 0.0
19/01:30pm 11.1 5.3 2.4 55 4.0 S 22 33 12 18 1019.5 1019.5 0.0
19/01:00pm 10.8 5.4 1.4 52 4.2 SSW 19 30 10 16 1019.8 1019.8 0.0
19/12:30pm 9.8 4.2 1.2 55 3.8 SSW 20 26 11 14 1020.3 1020.3 0.0
19/12:00pm 9.3 4.0 1.7 59 3.3 SSW 19 26 10 14 1020.6 1020.6 0.0
19/11:30am 9.1 3.3 2.2 62 3.1 S 22 32 12 17 1021.0 1021.1 0.0
19/11:00am 8.5 1.8 1.2 60 3.1 SSW 26 39 14 21 1021.0 1021.1 0.0
19/10:30am 7.9 1.5 1.1 62 2.9 SW 24 35 13 19 1021.5 1021.5 0.0
19/10:00am 6.9 0.1 0.8 65 2.6 SSW 26 33 14 18 1021.8 1021.9 0.0
19/09:30am 5.6 0.4 -0.2 66 2.4 SW 17 24 9 13 1022.2 1022.3 0.0
19/09:00am 4.8 -0.5 -0.4 69 2.1 SW 17 22 9 12 1022.5 1022.5 0.0
19/08:30am 3.9 -1.5 -1.7 67 2.1 SW 17 22 9 12 1022.6 1022.6 0.0
19/08:00am 3.2 -0.8 0.6 83 1.0 SW 11 13 6 7 1022.3 1022.4 0.0
19/07:30am 0.3 -1.9 -1.3 89 0.6 CALM 0 0 0 0 1021.8 1021.9 0.0
19/07:00am -1.8 -4.2 -3.1 91 0.4 CALM 0 0 0 0 1021.5 1021.5 0.0
19/06:30am -4.0 -6.6 -4.8 94 0.1 CALM 0 0 0 0 1021.3 1021.3 0.0
19/06:00am -5.5 -8.3 -6.7 91 0.1 ENE 0 0 0 0 1021.0 1021.1 0.0
19/05:30am -4.8 -7.5 -6.3 89 0.3 CALM 0 0 0 0 1020.9 1021.0 0.0
19/05:00am -3.7 -6.3 -4.9 91 0.2 CALM 0 0 0 0 1020.5 1020.5 0.0
19/04:30am -3.5 -7.2 -4.8 91 0.3 NNW 6 7 3 4 1020.2 1020.2 0.0
19/04:00am -3.6 -7.9 -4.7 92 0.2 SSW 9 11 5 6 1020.0 1020.1 0.0
19/03:30am -2.9 -7.9 -4.0 92 0.2 SW 13 15 7 8 1020.0 1020.1 0.0
19/03:00am -1.4 -7.4 -2.8 90 0.4 SW 19 20 10 11 1020.2 1020.2 0.0
19/02:30am -1.1 -6.7 -2.8 88 0.6 WSW 17 20 9 11 1020.4 1020.4 0.0
19/02:00am -0.6 -7.1 -2.3 88 0.6 SW 22 24 12 13 1020.5 1020.5 0.0
19/01:30am -0.2 -6.1 -1.9 88 0.6 WSW 19 20 10 11 1020.8 1020.9 0.0
19/01:00am -0.5 -5.9 -1.2 95 0.2 WSW 17 19 9 10 1021.1 1021.2 0.0
19/12:30am -1.4 -6.9 -2.1 95 0.2 SW 17 19 9 10 1021.1 1021.2 0.0
19/12:00am -1.3 -6.7 -1.6 98 0.0 SSW 17 19 9 10 1021.0 1021.1 0.0
 
Date/Time
EST
Temp
°C
App
Temp
°C
Dew
Point
Rel
Hum
%
Delta-T
°C
Wind Press
QNH
hPa
Press
MSL
hPa
Rain
since 9 am
mm
Dir
 
Spd
km/h
Gust
km/h
Spd
kts
Gust
kts
18/11:30pm -2.4 -4.8 -3.4 93 0.2 CALM 0 0 0 0 1021.3 1021.3 0.0
18/11:00pm -0.2 -4.5 -1.3 92 0.4 WSW 11 11 6 6 1021.1 1021.2 0.0
18/10:30pm -1.3 -5.3 -2.6 91 0.4 SW 9 13 5 7 1021.3 1021.3 0.0
18/10:00pm 1.2 -3.3 -0.4 89 0.6 WSW 13 15 7 8 1021.4 1021.4 0.0
18/09:30pm 1.0 -4.3 -0.8 88 0.7 WSW 17 19 9 10 1021.3 1021.3 0.0
18/09:00pm 1.6 -2.9 -0.6 85 0.8 W 13 15 7 8 1021.3 1021.3 0.0
18/08:30pm 0.6 -4.4 -1.3 87 0.7 SW 15 19 8 10 1021.0 1021.1 0.0
18/08:00pm 0.8 -3.5 -1.6 84 0.9 WSW 11 13 6 7 1020.7 1020.7 0.0
18/07:30pm 1.5 -2.8 -1.6 80 1.2 SW 11 13 6 7 1020.5 1020.5 0.0
18/07:00pm 1.9 -2.8 -1.5 78 1.3 S 13 20 7 11 1019.9 1020.0 0.0
18/06:30pm 2.6 -1.7 -1.9 72 1.7 SW 11 13 6 7 1019.5 1019.5 0.0
18/06:00pm 2.8 -2.2 -1.0 76 1.5 S 15 17 8 9 1019.2 1019.2 0.0
18/05:30pm 5.8 -0.3 0.2 67 2.3 S 22 28 12 15 1018.8 1018.8 0.0
18/05:00pm 7.4 0.1 -0.1 59 3.1 SSW 28 33 15 18 1018.4 1018.4 0.0
18/04:30pm 7.3 0.4 0.1 60 3.0 S 26 32 14 17 1017.9 1017.8 0.0
18/04:00pm 8.5 1.6 0.2 56 3.5 SSW 26 37 14 20 1017.6 1017.6 0.0
18/03:30pm 8.8 1.3 -1.3 49 4.1 SSW 28 39 15 21 1017.2 1017.2 0.0
18/03:00pm 9.7 2.7 -0.2 50 4.2 SSW 26 37 14 20 1017.2 1017.2 0.0
18/02:30pm 8.8 2.2 -0.2 53 3.8 SSW 24 33 13 18 1017.2 1017.2 0.0
18/02:00pm 9.1 2.1 -0.8 50 4.1 SSW 26 39 14 21 1017.0 1016.9 0.0
18/01:30pm 9.6 3.4 -0.3 50 4.2 SSW 22 32 12 17 1017.2 1017.2 0.0
18/01:00pm 8.8 1.8 -0.2 53 3.8 SW 26 35 14 19 1017.3 1017.3 0.0
18/12:30pm 8.6 2.5 0.6 57 3.4 SW 22 33 12 18 1017.6 1017.6 0.0
18/12:00pm 8.3 2.6 0.8 59 3.2 SSW 20 39 11 21 1017.6 1017.6 0.0
18/11:30am 7.8 0.8 -0.4 56 3.4 SSW 26 35 14 19 1018.0 1017.9 0.0
18/11:00am 7.5 1.0 0.3 60 3.0 SW 24 35 13 19 1018.1 1018.1 0.0
18/10:30am 6.9 -0.4 0.1 62 2.8 SSW 28 39 15 21 1018.0 1017.9 0.0
18/10:00am 6.4 -1.3 -0.3 62 2.7 SSW 30 39 16 21 1018.1 1018.1 0.0
18/09:30am 5.9 -1.8 -0.2 65 2.5 SSW 30 39 16 21 1017.9 - 0.0
18/09:00am 5.0 -2.3 -0.2 69 2.1 SSW 28 35 15 19 1018.0 1018.2 0.0
18/08:30am 3.9 -3.9 -0.5 73 1.7 SSW 30 39 16 21 1017.5 - 0.0
18/08:00am 4.0 -3.7 0.0 75 1.6 SSW 30 35 16 19 1016.9 - 0.0
18/07:30am 3.7 -2.1 0.2 78 1.4 SSW 20 26 11 14 1016.8 - 0.0
18/07:00am 2.3 -3.7 -1.3 77 1.4 SW 20 28 11 15 1016.3 - 0.0
18/06:30am 2.5 -5.9 -2.2 71 1.7 SW 32 41 17 22 1015.6 - 0.0
18/06:00am 2.5 -5.5 -2.6 69 1.9 WSW 30 37 16 20 1015.1 1015.3 0.0
18/05:30am 2.4 -5.3 -2.7 69 1.9 WSW 28 33 15 18 1014.9 - 0.0
18/05:00am 1.8 -5.1 -2.5 73 1.6 WSW 24 28 13 15 1014.7 - 0.0
18/04:30am 0.2 -5.8 -3.0 79 1.2 WSW 19 22 10 12 1014.5 - 0.0
18/04:00am -0.2 -5.7 -2.3 86 0.8 WSW 17 19 9 10 1014.5 - 0.0
18/03:30am -0.3 -5.9 -2.8 83 0.9 SW 17 17 9 9 1014.5 - 0.0
18/03:00am -0.4 -5.2 -2.3 87 0.7 WSW 13 17 7 9 1014.2 1014.4 0.0
18/02:30am 0.7 -4.2 -0.4 92 0.4 W 15 17 8 9 1014.1 - 0.0
18/02:00am -0.2 -4.3 -0.5 98 0.1 WSW 11 13 6 7 1014.1 - 0.0
18/01:30am 0.1 -4.0 0.0 99 0.0 SW 11 13 6 7 1014.4 - 0.0
18/01:00am -0.1 -4.2 -0.2 99 0.0 SW 11 13 6 7 1014.6 - 0.0
18/12:30am -0.5 -4.0 -1.2 95 0.2 W 7 9 4 5 1014.4 - 0.0
18/12:07am 0.1 -4.1 -0.6 95 0.3 SSW 11 13 6 7 1014.5 - 0.0
18/12:00am 0.6 -3.4 0.2 97 0.2 SSW 11 17 6 9 1014.5 1014.6 0.0
 
Date/Time
EST
Temp
°C
App
Temp
°C
Dew
Point
Rel
Hum
%
Delta-T
°C
Wind Press
QNH
hPa
Press
MSL
hPa
Rain
since 9 am
mm
Dir
 
Spd
km/h
Gust
km/h
Spd
kts
Gust
kts
17/11:30pm 1.5 -2.9 0.3 92 0.5 SSW 13 15 7 8 1014.5 - 0.0
17/11:26pm 1.8 -2.9 0.6 92 0.5 SSW 15 20 8 11 1014.4 - 0.0
17/11:00pm 2.5 -2.5 1.5 93 0.4 SSW 17 20 9 11 1014.4 - 0.0
17/10:30pm 2.8 -3.1 1.5 91 0.5 S 22 30 12 16 1014.0 - 0.0
17/10:00pm 5.0 -2.1 -1.4 63 2.5 W 26 35 14 19 1013.5 - 0.0
17/09:30pm 5.2 -3.0 -1.3 63 2.6 W 32 46 17 25 1013.1 - 0.0
17/09:00pm 5.3 -1.6 0.1 69 2.1 WSW 26 35 14 19 1013.1 1013.3 0.0
17/08:30pm 5.8 -0.2 1.2 72 1.9 WSW 22 30 12 16 1013.0 - 0.0
17/08:00pm 4.3 0.8 1.0 79 1.4 WSW 9 15 5 8 1012.9 - 0.0
17/07:30pm 4.6 0.8 -0.4 70 2.0 W 9 11 5 6 1012.3 - 0.0
17/07:00pm 5.5 0.2 -0.5 65 2.4 W 17 20 9 11 1012.4 - 0.0
17/06:30pm 6.1 0.2 -0.6 62 2.7 W 20 28 11 15 1012.3 - 0.0
17/06:00pm 7.0 0.4 -0.2 60 3.0 W 24 33 13 18 1011.9 1012.1 0.0
17/05:30pm 8.3 1.7 -0.4 54 3.6 W 24 35 13 19 1011.5 - 0.0
17/05:00pm 9.1 1.3 -0.8 50 4.1 W 30 41 16 22 1011.0 - 0.0
17/04:30pm 9.7 1.4 -1.6 45 4.6 W 32 44 17 24 1010.7 - 0.0
17/04:00pm 9.7 1.4 -0.5 49 4.3 W 33 44 18 24 1010.4 - 0.0
17/03:30pm 9.4 1.7 -0.2 51 4.0 WSW 30 41 16 22 1010.3 - 0.0
17/03:17pm 9.9 2.5 -0.6 48 4.4 W 28 46 15 25 1010.3 - 0.0
17/03:00pm 9.8 2.1 -0.4 49 4.3 W 30 39 16 21 1010.1 1010.2 0.0
17/02:30pm 11.1 3.7 1.6 52 4.2 W 30 39 16 21 1010.1 - 0.0
17/02:08pm 10.9 3.3 3.0 58 3.6 W 32 50 17 27 1010.0 - 0.0
17/02:00pm 9.8 1.9 2.2 59 3.4 WNW 33 43 18 23 1010.1 - 0.0
17/01:30pm 12.0 5.6 3.0 54 4.2 W 26 39 14 21 1009.9 - 0.0
17/01:00pm 10.4 3.0 -0.7 46 4.7 W 28 39 15 21 1009.9 - 0.0
17/12:30pm 11.0 3.4 0.4 48 4.6 W 30 41 16 22 1010.1 - 0.0
17/12:00pm 10.4 2.4 0.2 49 4.4 W 32 44 17 24 1010.4 1010.5 0.0
17/11:30am 10.7 2.9 1.5 53 4.1 W 32 46 17 25 1010.5 - 0.0
17/11:00am 10.1 2.0 0.7 52 4.1 W 33 46 18 25 1010.7 - 0.0
17/10:30am 10.4 4.0 1.0 52 4.1 W 24 37 13 20 1011.1 - 0.0
17/10:00am 9.6 2.7 0.2 52 4.0 W 26 32 14 17 1011.2 - 0.0
17/09:30am 8.8 0.8 0.5 56 3.5 WSW 32 46 17 25 1011.2 - 0.0
17/09:00am 8.8 1.6 0.5 56 3.5 WSW 28 35 15 19 1011.4 1011.5 2.6
17/08:30am 8.4 0.9 1.1 60 3.1 W 30 41 16 22 1011.5 - 2.6
17/08:00am 7.7 3.0 3.0 72 2.1 WSW 17 26 9 14 1011.6 - 2.6
17/07:30am 6.8 2.9 3.2 78 1.6 W 13 19 7 10 1011.5 - 2.4
17/07:00am 5.3 3.5 5.2 99 0.0 WSW 4 7 2 4 1011.1 - 2.4
17/06:30am 4.3 0.9 4.2 99 0.0 SSW 11 13 6 7 1010.9 - 2.4
17/06:04am 5.3 2.1 5.0 98 0.1 SSW 11 13 6 7 1010.6 - 2.4
17/06:00am 5.5 2.4 5.4 99 0.0 SSW 11 13 6 7 1010.6 1010.7 2.4
17/05:30am 6.0 3.6 5.4 96 0.3 SSW 7 11 4 6 1010.5 - 2.4
17/05:00am 5.9 4.6 5.8 99 0.0 SW 2 7 1 4 1010.5 - 2.4
17/04:30am 6.0 3.0 5.9 99 0.0 S 11 13 6 7 1010.1 - 2.4
17/04:00am 6.1 2.7 6.0 99 0.0 S 13 17 7 9 1009.9 - 2.4
17/03:30am 6.3 2.6 6.2 99 0.0 S 15 19 8 10 1009.6 - 2.4
17/03:29am 6.2 2.5 6.1 99 0.0 S 15 19 8 10 1009.6 - 2.4
17/03:00am 6.7 3.4 6.6 99 0.0 SW 13 15 7 8 1009.6 1009.7 2.4
17/02:51am 6.7 3.4 6.6 99 0.0 SSW 13 17 7 9 1009.6 - 2.2
17/02:42am 6.7 2.7 6.6 99 0.0 SSW 17 20 9 11 1009.8 - 2.2
17/02:30am 6.7 3.4 6.6 99 0.0 SW 13 15 7 8 1009.6 - 1.8
17/02:24am 6.8 3.6 6.7 99 0.0 WSW 13 17 7 9 1009.8 - 1.6
17/02:15am 6.9 3.6 6.6 98 0.1 WSW 13 17 7 9 1009.8 - 1.0
17/02:00am 7.0 3.4 6.7 98 0.1 SW 15 19 8 10 1009.6 - 0.4
17/01:30am 7.4 3.5 7.1 98 0.1 SSW 17 20 9 11 1009.9 - 0.2
17/01:00am 7.4 4.7 7.3 99 0.0 S 11 13 6 7 1009.9 - 0.2
17/12:30am 7.5 5.2 7.4 99 0.0 SW 9 9 5 5 1010.1 - 0.2
17/12:00am 7.5 5.6 7.4 99 0.0 WSW 7 7 4 4 1010.1 1010.2 0.2
 
Date/Time
EST
Temp
°C
App
Temp
°C
Dew
Point
Rel
Hum
%
Delta-T
°C
Wind Press
QNH
hPa
Press
MSL
hPa
Rain
since 9 am
mm
Dir
 
Spd
km/h
Gust
km/h
Spd
kts
Gust
kts
16/11:30pm 7.5 5.2 7.4 99 0.0 SW 9 11 5 6 1010.2 - 0.2
16/11:00pm 7.6 4.9 7.3 98 0.1 SSW 11 13 6 7 1010.3 - 0.2
16/10:30pm 7.8 4.6 6.9 94 0.4 SSW 13 17 7 9 1010.3 - 0.2
16/10:00pm 8.2 5.5 5.7 84 1.2 SW 9 11 5 6 1010.3 - 0.2
16/09:30pm 8.6 3.8 4.6 76 1.9 S 19 20 10 11 1010.2 - 0.2
16/09:00pm 9.2 5.1 4.2 71 2.3 W 15 22 8 12 1009.9 1009.9 0.2
16/08:30pm 8.4 4.6 4.0 74 2.0 WNW 13 17 7 9 1009.9 - 0.2
16/08:00pm 6.8 3.5 2.7 75 1.8 W 9 13 5 7 1009.8 - 0.2
16/07:30pm 8.1 4.5 3.2 71 2.2 SSW 11 13 6 7 1009.4 - 0.2
16/07:00pm 7.4 3.4 3.1 74 1.9 SSW 13 15 7 8 1009.1 - 0.2
16/06:30pm 9.3 4.1 3.5 67 2.7 W 20 32 11 17 1008.8 - 0.2
16/06:00pm 9.6 5.0 3.6 66 2.8 W 17 24 9 13 1008.1 1008.2 0.2

Other Formats:

Comma delimited format used in spreadsheet applications
http://www.bom.gov.au/fwo/IDN60801/IDN60801.94921.axf

JavaScript Object Notation format (JSON) in row-major order
http://www.bom.gov.au/fwo/IDN60801/IDN60801.94921.json